createdAt,value
2022-08-09T00:04:38.048Z,96247.13
2022-08-09T00:09:41.329Z,96233.47
2022-08-09T00:14:47.470Z,96233.69
2022-08-09T00:19:49.722Z,96237.31
2022-08-09T00:24:54.088Z,96233.84
2022-08-09T00:30:16.315Z,96230.81
2022-08-09T00:35:20.397Z,96229.84
2022-08-09T00:40:22.712Z,96226.69
2022-08-09T00:45:34.907Z,96226.47
2022-08-09T00:50:56.448Z,96224.63
2022-08-09T00:56:04.982Z,96232.56
2022-08-09T01:01:18.082Z,96234.78
2022-08-09T01:06:54.666Z,96230.59
2022-08-09T01:12:13.270Z,96239.34
2022-08-09T01:17:22.521Z,96244.16
2022-08-09T01:22:48.196Z,96243.53
2022-08-09T01:27:57.820Z,96250.31
2022-08-09T01:33:01.572Z,96250.41
2022-08-09T01:38:27.809Z,96250.66
2022-08-09T01:43:41.888Z,96248.69
2022-08-09T01:48:55.968Z,96250.66
2022-08-09T01:54:02.389Z,96244.16
2022-08-09T01:59:11.630Z,96256.97
2022-08-09T02:04:20.209Z,96260.13
2022-08-09T02:09:25.362Z,96260.84
2022-08-09T02:14:51.842Z,96264.84
2022-08-09T02:19:54.636Z,96264.91
2022-08-09T02:25:20.998Z,96264.16
2022-08-09T02:30:31.842Z,96275.56
2022-08-09T02:36:02.861Z,96267.25
2022-08-09T02:41:07.552Z,96265.78
2022-08-09T02:46:13.629Z,96263.13
2022-08-09T02:51:21.049Z,96269.31
2022-08-09T02:56:26.088Z,96266.44
2022-08-09T03:01:58.502Z,96271.25
2022-08-09T03:07:14.660Z,96258.03
2022-08-09T03:12:18.847Z,96259.56
2022-08-09T03:17:41.137Z,96258.38
2022-08-09T03:23:15.139Z,96248.28
2022-08-09T03:28:27.808Z,96252.50
2022-08-09T03:33:53.618Z,96255.53
2022-08-09T03:38:53.816Z,96258.03
2022-08-09T03:44:15.497Z,96255.59
2022-08-09T03:49:21.252Z,96266.78
2022-08-09T03:54:31.000Z,96268.75
2022-08-09T03:59:56.026Z,96276.75
2022-08-09T04:05:27.481Z,96274.63
2022-08-09T04:10:49.656Z,96268.13
2022-08-09T04:16:20.964Z,96279.16
2022-08-09T04:21:24.338Z,96283.00
2022-08-09T04:26:37.937Z,96276.50
2022-08-09T04:31:47.209Z,96280.31
2022-08-09T04:36:50.395Z,96278.19
2022-08-09T04:41:52.797Z,96295.50
2022-08-09T04:46:59.062Z,96289.00
2022-08-09T04:52:07.358Z,96287.78
2022-08-09T04:57:54.425Z,96293.81
2022-08-09T05:03:12.700Z,96286.47
2022-08-09T05:08:36.153Z,96292.75
2022-08-09T05:13:56.709Z,96293.78
2022-08-09T05:19:22.053Z,96297.59
2022-08-09T05:24:27.159Z,96315.03
2022-08-09T05:29:31.194Z,96310.31
2022-08-09T05:34:34.018Z,96322.75
2022-08-09T05:39:43.188Z,96327.84
2022-08-09T05:44:50.477Z,96334.75
2022-08-09T05:50:25.211Z,96329.78
2022-08-09T05:55:20.385Z,96337.91
2022-08-09T06:00:24.090Z,96338.72
2022-08-09T06:05:31.020Z,96341.09
2022-08-09T06:10:50.469Z,96333.59
2022-08-09T06:15:53.810Z,96338.59
2022-08-09T06:20:58.411Z,96346.75
2022-08-09T06:26:01.557Z,96346.91
2022-08-09T06:31:03.916Z,96348.19
2022-08-09T06:36:27.199Z,96343.66
2022-08-09T06:42:00.494Z,96352.47
2022-08-09T06:46:54.945Z,96352.13
2022-08-09T06:52:16.316Z,96353.59
2022-08-09T06:57:18.669Z,96361.22
2022-08-09T07:02:49.037Z,96355.34
2022-08-09T07:08:10.769Z,96356.94
2022-08-09T07:13:29.538Z,96360.38
2022-08-09T07:18:51.656Z,96359.69
2022-08-09T07:23:57.844Z,96367.56
2022-08-09T07:29:19.562Z,96358.59
2022-08-09T07:34:22.698Z,96365.03
2022-08-09T07:39:40.900Z,96364.59
2022-08-09T07:44:51.221Z,96368.47
2022-08-09T07:50:14.051Z,96366.84
2022-08-09T07:55:17.901Z,96357.47
2022-08-09T08:00:36.515Z,96357.19
2022-08-09T08:05:58.547Z,96347.53
2022-08-09T08:11:15.204Z,96349.19
2022-08-09T08:16:29.966Z,96357.06
2022-08-09T08:21:53.146Z,96360.75
2022-08-09T08:26:56.823Z,96360.06
2022-08-09T08:32:03.248Z,96353.09
2022-08-09T08:37:25.429Z,96354.09
2022-08-09T08:42:47.070Z,96362.84
2022-08-09T08:47:49.876Z,96368.56
2022-08-09T08:53:22.041Z,96369.56
2022-08-09T08:58:27.329Z,96366.78
2022-08-09T09:03:50.502Z,96363.09
2022-08-09T09:08:59.639Z,96368.44
2022-08-09T09:14:22.418Z,96368.94
2022-08-09T09:19:42.138Z,96381.25
2022-08-09T09:24:59.106Z,96372.72
2022-08-09T09:30:40.701Z,96372.00
2022-08-09T09:36:02.320Z,96380.59
2022-08-09T09:41:06.489Z,96372.84
2022-08-09T09:46:43.588Z,96370.09
2022-08-09T09:52:04.827Z,96366.69
2022-08-09T09:58:01.712Z,96371.31
2022-08-09T10:02:48.348Z,96361.25
2022-08-09T10:08:27.715Z,96373.50
2022-08-09T10:13:52.362Z,96388.31
2022-08-09T10:18:56.156Z,96384.53
2022-08-09T10:24:03.913Z,96385.81
2022-08-09T10:29:32.221Z,96387.78
2022-08-09T10:34:32.764Z,96377.63
2022-08-09T10:39:40.843Z,96378.94
2022-08-09T10:44:57.588Z,96363.50
2022-08-09T10:50:41.597Z,96365.63
2022-08-09T10:55:55.400Z,96381.94
2022-08-09T11:03:02.591Z,96374.53
2022-08-09T11:06:45.169Z,96373.00
2022-08-09T11:11:56.511Z,96370.50
2022-08-09T11:16:58.787Z,96358.28
2022-08-09T11:22:16.688Z,96352.47
2022-08-09T11:28:04.430Z,96362.91
2022-08-09T11:33:19.612Z,96352.94
2022-08-09T11:38:41.452Z,96355.72
2022-08-09T11:43:49.075Z,96349.91
2022-08-09T11:48:54.248Z,96358.78
2022-08-09T11:54:28.984Z,96353.88
2022-08-09T11:59:36.027Z,96352.59
2022-08-09T12:05:00.014Z,96346.66
2022-08-09T12:10:03.576Z,96348.78
2022-08-09T12:15:49.795Z,96346.34
2022-08-09T12:20:50.588Z,96345.69
2022-08-09T12:25:54.999Z,96345.56
2022-08-09T12:30:57.585Z,96346.13
2022-08-09T12:36:27.668Z,96344.31
2022-08-09T12:41:39.099Z,96341.81
2022-08-09T12:46:44.287Z,96343.91
2022-08-09T12:52:10.036Z,96347.75
2022-08-09T12:57:46.381Z,96344.56
2022-08-09T13:02:54.042Z,96343.94
2022-08-09T13:08:40.582Z,96336.97
2022-08-09T13:14:40.698Z,96331.13
2022-08-09T13:19:06.798Z,96321.94
2022-08-09T13:24:42.514Z,96329.31
2022-08-09T13:30:03.684Z,96328.03
2022-08-09T13:35:25.162Z,96321.81
2022-08-09T13:41:50.637Z,96321.19
2022-08-09T13:46:44.752Z,96315.50
2022-08-09T13:51:22.628Z,96324.59
2022-08-09T13:56:31.448Z,96313.66
2022-08-09T14:02:00.458Z,96309.38
2022-08-09T14:07:04.754Z,96306.72
2022-08-09T14:12:15.643Z,96317.41
2022-08-09T14:17:22.698Z,96302.75
2022-08-09T14:22:25.664Z,96304.31
2022-08-09T14:27:27.968Z,96298.00
2022-08-09T14:32:37.758Z,96294.09
2022-08-09T14:37:41.061Z,96302.69
2022-08-09T14:43:23.247Z,96305.41
2022-08-09T14:48:44.170Z,96302.75
2022-08-09T14:53:52.288Z,96298.88
2022-08-09T14:58:56.232Z,96296.19
2022-08-09T15:03:58.772Z,96302.88
2022-08-09T15:10:03.556Z,96297.53
2022-08-09T15:14:45.109Z,96294.13
2022-08-09T15:19:59.229Z,96295.97
2022-08-09T15:25:39.148Z,96297.22
2022-08-09T15:31:03.154Z,96294.66
2022-08-09T15:36:30.079Z,96289.97
2022-08-09T15:41:54.699Z,96289.31
2022-08-09T15:46:56.941Z,96279.53
2022-08-09T15:52:04.827Z,96280.72
2022-08-09T15:57:08.229Z,96272.34
2022-08-09T16:02:13.409Z,96272.34
2022-08-09T16:07:39.584Z,96268.06
2022-08-09T16:12:53.525Z,96270.19
2022-08-09T16:17:59.144Z,96256.81
2022-08-09T16:23:21.700Z,96268.09
2022-08-09T16:28:25.745Z,96261.88
2022-08-09T16:33:30.880Z,96253.94
2022-08-09T16:38:57.075Z,96255.59
2022-08-09T16:44:17.767Z,96259.25
2022-08-09T16:50:29.341Z,96264.81
2022-08-09T16:55:03.407Z,96257.34
2022-08-09T17:08:45.640Z,96265.31
2022-08-09T17:13:06.937Z,96264.56
2022-08-09T17:18:17.881Z,96263.34
2022-08-09T17:24:19.940Z,96263.97
2022-08-09T17:28:51.729Z,96270.13
2022-08-09T17:34:20.262Z,96270.91
2022-08-09T17:39:52.874Z,96267.13
2022-08-09T17:44:56.141Z,96272.69
2022-08-09T17:50:10.930Z,96273.19
2022-08-09T17:55:19.644Z,96276.09
2022-08-09T18:00:35.196Z,96277.03
2022-08-09T18:06:03.634Z,96274.25
2022-08-09T18:11:18.676Z,96279.09
2022-08-09T18:16:49.056Z,96275.56
2022-08-09T18:22:13.162Z,96284.75
2022-08-09T18:28:03.116Z,96287.16
2022-08-09T18:32:43.669Z,96280.47
2022-08-09T18:37:49.016Z,96282.88
2022-08-09T18:43:16.262Z,96288.72
2022-08-09T18:48:37.396Z,96289.94
2022-08-09T18:54:02.763Z,96295.16
2022-08-09T18:59:29.008Z,96297.16
2022-08-09T19:04:40.414Z,96298.03
2022-08-09T19:10:15.721Z,96308.53
2022-08-09T19:15:20.209Z,96307.16
2022-08-09T19:20:42.794Z,96302.22
2022-08-09T19:26:01.835Z,96303.38
2022-08-09T19:31:25.509Z,96305.44
2022-08-09T19:36:32.819Z,96307.16
2022-08-09T19:41:35.814Z,96315.28
2022-08-09T19:46:50.843Z,96313.66
2022-08-09T19:51:56.225Z,96318.91
2022-08-09T19:56:59.373Z,96317.94
2022-08-09T20:02:07.978Z,96328.31
2022-08-09T20:07:59.044Z,96317.38
2022-08-09T20:13:06.382Z,96324.84
2022-08-09T20:18:23.101Z,96316.94
2022-08-09T20:23:51.268Z,96320.00
2022-08-09T20:28:55.978Z,96315.38
2022-08-09T20:34:18.019Z,96318.47
2022-08-09T20:40:15.655Z,96317.88
2022-08-09T20:46:00.532Z,96321.38
2022-08-09T20:50:46.646Z,96325.78
2022-08-09T20:56:01.949Z,96324.72
2022-08-09T21:01:34.794Z,96324.47
2022-08-09T21:06:46.608Z,96331.44
2022-08-09T21:18:23.587Z,96314.72
2022-08-09T21:22:55.053Z,96318.19
2022-08-09T21:27:57.529Z,96327.31
2022-08-09T21:33:18.469Z,96320.03
2022-08-09T21:38:38.989Z,96323.47
2022-08-09T21:43:59.849Z,96316.38
2022-08-09T21:49:02.748Z,96318.47
2022-08-09T21:54:27.029Z,96319.94
2022-08-09T21:59:47.529Z,96305.31
2022-08-09T22:04:57.301Z,96305.09
2022-08-09T22:10:22.981Z,96304.63
2022-08-09T22:15:34.614Z,96313.47
2022-08-09T22:20:39.896Z,96301.25
2022-08-09T22:26:07.936Z,96296.19
2022-08-09T22:31:33.070Z,96303.41
2022-08-09T22:36:45.756Z,96294.78
2022-08-09T22:41:49.690Z,96301.34
2022-08-09T22:48:10.305Z,96289.22
2022-08-09T22:52:15.640Z,96290.78
2022-08-09T22:57:37.169Z,96281.31
2022-08-09T23:02:59.468Z,96281.59
2022-08-09T23:08:22.758Z,96283.75
2022-08-09T23:13:50.409Z,96279.34
2022-08-09T23:19:10.677Z,96290.25
2022-08-09T23:24:12.757Z,96281.56
2022-08-09T23:29:18.370Z,96283.22
2022-08-09T23:34:20.606Z,96278.75
2022-08-09T23:39:41.460Z,96288.56
2022-08-09T23:44:43.798Z,96284.75
2022-08-09T23:50:05.097Z,96289.97
2022-08-09T23:55:25.727Z,96285.25
